Hlavní strana
METAR-TAF:

METAR-TAF

Letiště :

Letiště Odense

Odense, Dánsko

zeměpisná šířka: 55-29N, zeměpisná délka: 010-20E, výška: 17 m

Aktuální stav počasí

Zpráva byla vytvořena před 13 hodinami a 31 minutami, v 15:50 UTC
Východojihovýchodní vítr 6 kt
Teplota 8°C
Vlhkost vzduchu 93%
Tlak 1028 hPa
Viditelnost 10 km a více
Žádná oblačnost pod 1500 m, nevyskytují se cumulonimby.

METAR: EKOD 151550Z 11006KT CAVOK 08/07 Q1028

Čas: 06:21 (05:21 UTC)

Předpověď počasí

Zpráva byla vytvořena před 17 hodinami a 57 minutami, v 11:24 UTC
Předpověď platná od 15 v 12 UTC do 15 v 17 UTC
Jihovýchodní vítr 8 kt
Viditelnost 10 km a více
Polojasno ve výšce 3000 ft

TAF: EKOD 151124Z 1512/1517 14008KT 9999 SCT030

Stav a předpovědi počasí z více než 4 000 letišť (zprávy METAR a TAF).

Červené a žluté tečky na mapě představují dostupné meteorologické stanice.

Když kurzor umístíte na tečku, zobrazí se název stanice.

Pak kliknutím zobrazíte stav a předpověď počasí.

Chcete-li změnit mapu, kliknutím na zelené tlačítko se znaménkem +mapu přiblížíte, kliknutím na zelené tlačítko se znaménkem – mapu oddálíte a kliknutím na zelené šipky přejdete na sousední mapy.


METAR-TAF: